sensor_id;sensor_type;location;lat;lon;timestamp;pressure;altitude;pressure_sealevel;temperature
33267;BMP180;19638;49.080;11.896;2022-09-09T00:00:41;96092.00;;;13.50
33267;BMP180;19638;49.080;11.896;2022-09-09T00:04:54;96092.00;;;13.50
33267;BMP180;19638;49.080;11.896;2022-09-09T00:09:08;96096.00;;;13.50
33267;BMP180;19638;49.080;11.896;2022-09-09T00:13:16;96092.00;;;13.60
33267;BMP180;19638;49.080;11.896;2022-09-09T00:17:33;96092.00;;;13.50
33267;BMP180;19638;49.080;11.896;2022-09-09T00:21:41;96092.00;;;13.50
33267;BMP180;19638;49.080;11.896;2022-09-09T00:25:50;96078.00;;;13.50
33267;BMP180;19638;49.080;11.896;2022-09-09T00:29:57;96069.00;;;13.40
33267;BMP180;19638;49.080;11.896;2022-09-09T00:34:30;96073.00;;;13.40
33267;BMP180;19638;49.080;11.896;2022-09-09T00:38:36;96076.00;;;13.40
33267;BMP180;19638;49.080;11.896;2022-09-09T00:42:42;96081.00;;;13.40
33267;BMP180;19638;49.080;11.896;2022-09-09T00:46:54;96071.00;;;13.50
33267;BMP180;19638;49.080;11.896;2022-09-09T00:51:07;96078.00;;;13.40
33267;BMP180;19638;49.080;11.896;2022-09-09T00:55:38;96086.00;;;13.50
33267;BMP180;19638;49.080;11.896;2022-09-09T00:59:47;96084.00;;;13.70
33267;BMP180;19638;49.080;11.896;2022-09-09T01:03:53;96095.00;;;13.90
33267;BMP180;19638;49.080;11.896;2022-09-09T01:08:00;96101.00;;;14.20
33267;BMP180;19638;49.080;11.896;2022-09-09T01:12:34;96092.00;;;14.30
33267;BMP180;19638;49.080;11.896;2022-09-09T01:16:43;96090.00;;;14.40
33267;BMP180;19638;49.080;11.896;2022-09-09T01:20:53;96082.00;;;14.50
33267;BMP180;19638;49.080;11.896;2022-09-09T01:25:27;96092.00;;;14.80
33267;BMP180;19638;49.080;11.896;2022-09-09T01:29:32;96079.00;;;15.00
33267;BMP180;19638;49.080;11.896;2022-09-09T01:33:36;96086.00;;;15.20
33267;BMP180;19638;49.080;11.896;2022-09-09T01:37:39;96079.00;;;15.30
33267;BMP180;19638;49.080;11.896;2022-09-09T01:42:08;96084.00;;;15.30
33267;BMP180;19638;49.080;11.896;2022-09-09T01:46:13;96077.00;;;15.30
33267;BMP180;19638;49.080;11.896;2022-09-09T01:50:17;96082.00;;;15.30
33267;BMP180;19638;49.080;11.896;2022-09-09T01:54:21;96086.00;;;15.20
33267;BMP180;19638;49.080;11.896;2022-09-09T01:58:32;96082.00;;;15.10
33267;BMP180;19638;49.080;11.896;2022-09-09T02:02:44;96074.00;;;15.20
33267;BMP180;19638;49.080;11.896;2022-09-09T02:06:54;96074.00;;;15.20
33267;BMP180;19638;49.080;11.896;2022-09-09T02:11:01;96075.00;;;15.10
33267;BMP180;19638;49.080;11.896;2022-09-09T02:15:10;96073.00;;;15.10
33267;BMP180;19638;49.080;11.896;2022-09-09T02:19:17;96076.00;;;15.00
33267;BMP180;19638;49.080;11.896;2022-09-09T02:23:25;96076.00;;;14.80
33267;BMP180;19638;49.080;11.896;2022-09-09T02:27:29;96081.00;;;14.60
33267;BMP180;19638;49.080;11.896;2022-09-09T02:31:32;96076.00;;;14.50
33267;BMP180;19638;49.080;11.896;2022-09-09T02:35:40;96071.00;;;14.50
33267;BMP180;19638;49.080;11.896;2022-09-09T02:44:17;96065.00;;;14.40
33267;BMP180;19638;49.080;11.896;2022-09-09T02:48:26;96060.00;;;14.40
33267;BMP180;19638;49.080;11.896;2022-09-09T02:52:40;96062.00;;;14.50
33267;BMP180;19638;49.080;11.896;2022-09-09T02:56:48;96062.00;;;14.50
33267;BMP180;19638;49.080;11.896;2022-09-09T03:00:52;96066.00;;;14.50
33267;BMP180;19638;49.080;11.896;2022-09-09T03:05:07;96058.00;;;14.50
33267;BMP180;19638;49.080;11.896;2022-09-09T03:09:12;96058.00;;;14.60
33267;BMP180;19638;49.080;11.896;2022-09-09T03:13:15;96053.00;;;14.60
33267;BMP180;19638;49.080;11.896;2022-09-09T03:17:21;96054.00;;;14.70
33267;BMP180;19638;49.080;11.896;2022-09-09T03:21:55;96056.00;;;14.70
33267;BMP180;19638;49.080;11.896;2022-09-09T03:26:00;96062.00;;;14.70
33267;BMP180;19638;49.080;11.896;2022-09-09T03:30:04;96061.00;;;14.70
33267;BMP180;19638;49.080;11.896;2022-09-09T03:34:07;96074.00;;;14.80
33267;BMP180;19638;49.080;11.896;2022-09-09T03:38:10;96076.00;;;14.90
33267;BMP180;19638;49.080;11.896;2022-09-09T03:42:15;96069.00;;;14.90
33267;BMP180;19638;49.080;11.896;2022-09-09T03:46:22;96064.00;;;14.90
33267;BMP180;19638;49.080;11.896;2022-09-09T03:50:56;96069.00;;;14.90
33267;BMP180;19638;49.080;11.896;2022-09-09T03:55:02;96069.00;;;15.00
33267;BMP180;19638;49.080;11.896;2022-09-09T03:59:07;96066.00;;;15.10
33267;BMP180;19638;49.080;11.896;2022-09-09T04:03:11;96073.00;;;15.20
33267;BMP180;19638;49.080;11.896;2022-09-09T04:07:14;96074.00;;;15.20
33267;BMP180;19638;49.080;11.896;2022-09-09T04:11:17;96078.00;;;15.10
33267;BMP180;19638;49.080;11.896;2022-09-09T04:15:23;96075.00;;;15.20
33267;BMP180;19638;49.080;11.896;2022-09-09T04:19:56;96071.00;;;15.20
33267;BMP180;19638;49.080;11.896;2022-09-09T04:23:59;96078.00;;;15.20
33267;BMP180;19638;49.080;11.896;2022-09-09T04:28:02;96077.00;;;15.20
33267;BMP180;19638;49.080;11.896;2022-09-09T04:32:07;96077.00;;;15.20
33267;BMP180;19638;49.080;11.896;2022-09-09T04:36:40;96073.00;;;15.10
33267;BMP180;19638;49.080;11.896;2022-09-09T04:40:45;96068.00;;;15.00
33267;BMP180;19638;49.080;11.896;2022-09-09T04:44:48;96071.00;;;14.90
33267;BMP180;19638;49.080;11.896;2022-09-09T04:48:53;96056.00;;;14.90
33267;BMP180;19638;49.080;11.896;2022-09-09T04:52:56;96057.00;;;14.90
33267;BMP180;19638;49.080;11.896;2022-09-09T04:57:02;96056.00;;;14.90
33267;BMP180;19638;49.080;11.896;2022-09-09T05:01:06;96046.00;;;15.00
33267;BMP180;19638;49.080;11.896;2022-09-09T05:05:45;96046.00;;;15.10
33267;BMP180;19638;49.080;11.896;2022-09-09T05:09:48;96052.00;;;15.10
33267;BMP180;19638;49.080;11.896;2022-09-09T05:13:52;96055.00;;;15.10
33267;BMP180;19638;49.080;11.896;2022-09-09T05:17:57;96054.00;;;15.20
33267;BMP180;19638;49.080;11.896;2022-09-09T05:22:02;96058.00;;;15.40
33267;BMP180;19638;49.080;11.896;2022-09-09T05:26:07;96057.00;;;15.60
33267;BMP180;19638;49.080;11.896;2022-09-09T05:30:17;96062.00;;;15.80
33267;BMP180;19638;49.080;11.896;2022-09-09T05:34:20;96076.00;;;15.80
33267;BMP180;19638;49.080;11.896;2022-09-09T05:38:25;96079.00;;;15.70
33267;BMP180;19638;49.080;11.896;2022-09-09T05:42:30;96078.00;;;15.70
33267;BMP180;19638;49.080;11.896;2022-09-09T05:46:34;96094.00;;;15.70
33267;BMP180;19638;49.080;11.896;2022-09-09T05:51:08;96093.00;;;15.70
33267;BMP180;19638;49.080;11.896;2022-09-09T05:55:13;96100.00;;;15.70
33267;BMP180;19638;49.080;11.896;2022-09-09T05:59:17;96102.00;;;15.80
33267;BMP180;19638;49.080;11.896;2022-09-09T06:08:38;96094.00;;;15.80
33267;BMP180;19638;49.080;11.896;2022-09-09T06:12:42;96106.00;;;16.00
33267;BMP180;19638;49.080;11.896;2022-09-09T06:16:45;96101.00;;;16.20
33267;BMP180;19638;49.080;11.896;2022-09-09T06:21:22;96104.00;;;16.30
33267;BMP180;19638;49.080;11.896;2022-09-09T06:25:26;96102.00;;;16.40
33267;BMP180;19638;49.080;11.896;2022-09-09T06:29:30;96093.00;;;16.60
33267;BMP180;19638;49.080;11.896;2022-09-09T06:34:04;96102.00;;;17.00
33267;BMP180;19638;49.080;11.896;2022-09-09T06:38:08;96103.00;;;17.50
33267;BMP180;19638;49.080;11.896;2022-09-09T06:42:11;96106.00;;;17.70
33267;BMP180;19638;49.080;11.896;2022-09-09T06:46:17;96117.00;;;18.00
33267;BMP180;19638;49.080;11.896;2022-09-09T06:50:51;96109.00;;;18.20
33267;BMP180;19638;49.080;11.896;2022-09-09T06:54:55;96115.00;;;18.60
33267;BMP180;19638;49.080;11.896;2022-09-09T06:59:01;96115.00;;;19.10
33267;BMP180;19638;49.080;11.896;2022-09-09T07:03:07;96121.00;;;19.50
33267;BMP180;19638;49.080;11.896;2022-09-09T07:07:41;96124.00;;;19.70
33267;BMP180;19638;49.080;11.896;2022-09-09T07:11:46;96129.00;;;19.60
33267;BMP180;19638;49.080;11.896;2022-09-09T07:15:50;96129.00;;;19.50
33267;BMP180;19638;49.080;11.896;2022-09-09T07:20:28;96131.00;;;19.30
33267;BMP180;19638;49.080;11.896;2022-09-09T07:24:31;96126.00;;;18.90
33267;BMP180;19638;49.080;11.896;2022-09-09T07:28:35;96127.00;;;18.60
33267;BMP180;19638;49.080;11.896;2022-09-09T07:33:09;96142.00;;;18.20
33267;BMP180;19638;49.080;11.896;2022-09-09T07:37:14;96142.00;;;17.80
33267;BMP180;19638;49.080;11.896;2022-09-09T07:41:19;96142.00;;;17.60
33267;BMP180;19638;49.080;11.896;2022-09-09T07:45:23;96149.00;;;17.40
33267;BMP180;19638;49.080;11.896;2022-09-09T07:49:26;96159.00;;;17.30
33267;BMP180;19638;49.080;11.896;2022-09-09T07:53:35;96166.00;;;17.10
33267;BMP180;19638;49.080;11.896;2022-09-09T07:57:39;96168.00;;;17.10
33267;BMP180;19638;49.080;11.896;2022-09-09T08:01:44;96161.00;;;17.10
33267;BMP180;19638;49.080;11.896;2022-09-09T08:06:18;96175.00;;;17.10
33267;BMP180;19638;49.080;11.896;2022-09-09T08:10:23;96178.00;;;17.10
33267;BMP180;19638;49.080;11.896;2022-09-09T08:14:26;96180.00;;;17.20
33267;BMP180;19638;49.080;11.896;2022-09-09T08:18:29;96166.00;;;17.30
33267;BMP180;19638;49.080;11.896;2022-09-09T08:22:32;96174.00;;;17.50
33267;BMP180;19638;49.080;11.896;2022-09-09T08:26:38;96178.00;;;17.60
33267;BMP180;19638;49.080;11.896;2022-09-09T08:30:43;96182.00;;;18.30
33267;BMP180;19638;49.080;11.896;2022-09-09T08:35:17;96165.00;;;19.00
33267;BMP180;19638;49.080;11.896;2022-09-09T08:39:21;96182.00;;;18.70
33267;BMP180;19638;49.080;11.896;2022-09-09T08:43:27;96183.00;;;18.60
33267;BMP180;19638;49.080;11.896;2022-09-09T08:47:37;96190.00;;;18.80
33267;BMP180;19638;49.080;11.896;2022-09-09T08:51:42;96184.00;;;19.20
33267;BMP180;19638;49.080;11.896;2022-09-09T08:56:21;96177.00;;;19.50
33267;BMP180;19638;49.080;11.896;2022-09-09T09:00:31;96198.00;;;20.10
33267;BMP180;19638;49.080;11.896;2022-09-09T09:04:48;96187.00;;;20.40
33267;BMP180;19638;49.080;11.896;2022-09-09T09:09:17;96193.00;;;20.50
33267;BMP180;19638;49.080;11.896;2022-09-09T09:13:30;96191.00;;;20.60
33267;BMP180;19638;49.080;11.896;2022-09-09T09:17:45;96200.00;;;20.70
33267;BMP180;19638;49.080;11.896;2022-09-09T09:22:22;96192.00;;;21.00
33267;BMP180;19638;49.080;11.896;2022-09-09T09:26:32;96192.00;;;21.90
33267;BMP180;19638;49.080;11.896;2022-09-09T09:31:07;96186.00;;;22.40
33267;BMP180;19638;49.080;11.896;2022-09-09T09:35:13;96188.00;;;22.30
33267;BMP180;19638;49.080;11.896;2022-09-09T09:39:23;96181.00;;;22.30
33267;BMP180;19638;49.080;11.896;2022-09-09T09:43:53;96183.00;;;22.40
33267;BMP180;19638;49.080;11.896;2022-09-09T09:48:02;96172.00;;;22.60
33267;BMP180;19638;49.080;11.896;2022-09-09T09:56:41;96174.00;;;22.80
33267;BMP180;19638;49.080;11.896;2022-09-09T10:00:48;96179.00;;;22.70
33267;BMP180;19638;49.080;11.896;2022-09-09T10:05:14;96181.00;;;22.80
33267;BMP180;19638;49.080;11.896;2022-09-09T10:09:22;96176.00;;;22.90
33267;BMP180;19638;49.080;11.896;2022-09-09T10:13:30;96171.00;;;23.20
33267;BMP180;19638;49.080;11.896;2022-09-09T10:17:44;96176.00;;;23.60
33267;BMP180;19638;49.080;11.896;2022-09-09T10:22:22;96174.00;;;23.60
33267;BMP180;19638;49.080;11.896;2022-09-09T10:26:35;96171.00;;;23.80
33267;BMP180;19638;49.080;11.896;2022-09-09T10:30:50;96173.00;;;24.10
33267;BMP180;19638;49.080;11.896;2022-09-09T10:35:25;96173.00;;;25.10
33267;BMP180;19638;49.080;11.896;2022-09-09T10:39:34;96163.00;;;25.80
33267;BMP180;19638;49.080;11.896;2022-09-09T10:44:01;96162.00;;;26.00
33267;BMP180;19638;49.080;11.896;2022-09-09T10:48:27;96168.00;;;26.30
33267;BMP180;19638;49.080;11.896;2022-09-09T10:52:38;96161.00;;;26.60
33267;BMP180;19638;49.080;11.896;2022-09-09T10:56:51;96156.00;;;26.50
33267;BMP180;19638;49.080;11.896;2022-09-09T11:01:02;96157.00;;;26.60
33267;BMP180;19638;49.080;11.896;2022-09-09T11:05:16;96158.00;;;26.80
33267;BMP180;19638;49.080;11.896;2022-09-09T11:09:24;96163.00;;;27.00
33267;BMP180;19638;49.080;11.896;2022-09-09T11:13:33;96159.00;;;27.20
33267;BMP180;19638;49.080;11.896;2022-09-09T11:17:42;96160.00;;;27.40
33267;BMP180;19638;49.080;11.896;2022-09-09T11:22:22;96157.00;;;27.10
33267;BMP180;19638;49.080;11.896;2022-09-09T11:26:31;96145.00;;;26.80
33267;BMP180;19638;49.080;11.896;2022-09-09T11:30:48;96149.00;;;27.20
33267;BMP180;19638;49.080;11.896;2022-09-09T11:35:19;96149.00;;;27.40
33267;BMP180;19638;49.080;11.896;2022-09-09T11:39:47;96148.00;;;27.40
33267;BMP180;19638;49.080;11.896;2022-09-09T11:43:57;96154.00;;;27.50
33267;BMP180;19638;49.080;11.896;2022-09-09T11:48:01;96154.00;;;27.40
33267;BMP180;19638;49.080;11.896;2022-09-09T11:52:11;96154.00;;;27.10
33267;BMP180;19638;49.080;11.896;2022-09-09T11:56:25;96147.00;;;27.00
33267;BMP180;19638;49.080;11.896;2022-09-09T12:00:33;96145.00;;;26.90
33267;BMP180;19638;49.080;11.896;2022-09-09T12:05:05;96142.00;;;26.70
33267;BMP180;19638;49.080;11.896;2022-09-09T12:09:17;96142.00;;;26.60
33267;BMP180;19638;49.080;11.896;2022-09-09T12:13:25;96140.00;;;26.60
33267;BMP180;19638;49.080;11.896;2022-09-09T12:17:30;96138.00;;;26.40
33267;BMP180;19638;49.080;11.896;2022-09-09T12:22:04;96140.00;;;26.30
33267;BMP180;19638;49.080;11.896;2022-09-09T12:26:29;96144.00;;;26.20
33267;BMP180;19638;49.080;11.896;2022-09-09T12:30:45;96147.00;;;26.30
33267;BMP180;19638;49.080;11.896;2022-09-09T12:34:54;96138.00;;;26.40
33267;BMP180;19638;49.080;11.896;2022-09-09T12:39:10;96135.00;;;26.30
33267;BMP180;19638;49.080;11.896;2022-09-09T12:43:18;96130.00;;;26.50
33267;BMP180;19638;49.080;11.896;2022-09-09T12:47:55;96120.00;;;26.20
33267;BMP180;19638;49.080;11.896;2022-09-09T12:52:02;96118.00;;;26.20
33267;BMP180;19638;49.080;11.896;2022-09-09T12:56:09;96106.00;;;26.30
33267;BMP180;19638;49.080;11.896;2022-09-09T13:00:48;96113.00;;;26.10
33267;BMP180;19638;49.080;11.896;2022-09-09T13:04:54;96104.00;;;25.90
33267;BMP180;19638;49.080;11.896;2022-09-09T13:08:59;96094.00;;;25.80
33267;BMP180;19638;49.080;11.896;2022-09-09T13:13:13;96080.00;;;25.80
33267;BMP180;19638;49.080;11.896;2022-09-09T13:17:20;96074.00;;;26.00
33267;BMP180;19638;49.080;11.896;2022-09-09T13:21:33;96069.00;;;26.20
33267;BMP180;19638;49.080;11.896;2022-09-09T13:26:02;96064.00;;;25.90
33267;BMP180;19638;49.080;11.896;2022-09-09T13:30:20;96066.00;;;25.70
33267;BMP180;19638;49.080;11.896;2022-09-09T13:34:27;96063.00;;;25.90
33267;BMP180;19638;49.080;11.896;2022-09-09T13:38:36;96060.00;;;25.90
33267;BMP180;19638;49.080;11.896;2022-09-09T13:42:41;96061.00;;;26.10
33267;BMP180;19638;49.080;11.896;2022-09-09T13:46:44;96064.00;;;25.90
33267;BMP180;19638;49.080;11.896;2022-09-09T13:50:55;96065.00;;;26.20
33267;BMP180;19638;49.080;11.896;2022-09-09T13:55:25;96066.00;;;26.50
33267;BMP180;19638;49.080;11.896;2022-09-09T13:59:28;96059.00;;;26.80
33267;BMP180;19638;49.080;11.896;2022-09-09T14:03:51;96045.00;;;26.60
33267;BMP180;19638;49.080;11.896;2022-09-09T14:07:54;96053.00;;;26.50
33267;BMP180;19638;49.080;11.896;2022-09-09T14:11:59;96061.00;;;26.80
33267;BMP180;19638;49.080;11.896;2022-09-09T14:16:02;96052.00;;;27.10
33267;BMP180;19638;49.080;11.896;2022-09-09T14:20:07;96053.00;;;26.90
33267;BMP180;19638;49.080;11.896;2022-09-09T14:24:41;96043.00;;;27.30
33267;BMP180;19638;49.080;11.896;2022-09-09T14:28:45;96044.00;;;27.10
33267;BMP180;19638;49.080;11.896;2022-09-09T14:32:57;96044.00;;;27.10
33267;BMP180;19638;49.080;11.896;2022-09-09T14:37:34;96040.00;;;27.30
33267;BMP180;19638;49.080;11.896;2022-09-09T14:41:37;96047.00;;;27.30
33267;BMP180;19638;49.080;11.896;2022-09-09T14:45:41;96038.00;;;27.00
33267;BMP180;19638;49.080;11.896;2022-09-09T14:49:45;96053.00;;;26.40
33267;BMP180;19638;49.080;11.896;2022-09-09T14:54:19;96056.00;;;25.90
33267;BMP180;19638;49.080;11.896;2022-09-09T14:58:22;96055.00;;;25.90
33267;BMP180;19638;49.080;11.896;2022-09-09T15:02:33;96050.00;;;26.00
33267;BMP180;19638;49.080;11.896;2022-09-09T15:06:37;96049.00;;;25.60
33267;BMP180;19638;49.080;11.896;2022-09-09T15:10:40;96041.00;;;25.20
33267;BMP180;19638;49.080;11.896;2022-09-09T15:14:46;96051.00;;;24.80
33267;BMP180;19638;49.080;11.896;2022-09-09T15:23:28;96043.00;;;24.40
33267;BMP180;19638;49.080;11.896;2022-09-09T15:27:31;96043.00;;;24.20
33267;BMP180;19638;49.080;11.896;2022-09-09T15:32:06;96034.00;;;24.00
33267;BMP180;19638;49.080;11.896;2022-09-09T15:36:14;96035.00;;;23.80
33267;BMP180;19638;49.080;11.896;2022-09-09T15:40:18;96036.00;;;23.70
33267;BMP180;19638;49.080;11.896;2022-09-09T15:44:21;96032.00;;;23.70
33267;BMP180;19638;49.080;11.896;2022-09-09T15:48:30;96023.00;;;23.70
33267;BMP180;19638;49.080;11.896;2022-09-09T15:52:35;96021.00;;;23.60
33267;BMP180;19638;49.080;11.896;2022-09-09T15:56:40;96036.00;;;23.50
33267;BMP180;19638;49.080;11.896;2022-09-09T16:01:13;96059.00;;;23.30
33267;BMP180;19638;49.080;11.896;2022-09-09T16:05:18;96060.00;;;23.10
33267;BMP180;19638;49.080;11.896;2022-09-09T16:09:22;96040.00;;;22.90
33267;BMP180;19638;49.080;11.896;2022-09-09T16:13:26;96042.00;;;22.70
33267;BMP180;19638;49.080;11.896;2022-09-09T16:22:04;96066.00;;;22.30
33267;BMP180;19638;49.080;11.896;2022-09-09T16:26:11;96101.00;;;22.10
33267;BMP180;19638;49.080;11.896;2022-09-09T16:30:15;96109.00;;;21.60
33267;BMP180;19638;49.080;11.896;2022-09-09T16:34:18;96130.00;;;21.00
33267;BMP180;19638;49.080;11.896;2022-09-09T16:38:21;96134.00;;;20.20
33267;BMP180;19638;49.080;11.896;2022-09-09T16:42:25;96121.00;;;19.30
33267;BMP180;19638;49.080;11.896;2022-09-09T16:47:04;96104.00;;;18.40
33267;BMP180;19638;49.080;11.896;2022-09-09T16:51:11;96082.00;;;17.80
33267;BMP180;19638;49.080;11.896;2022-09-09T16:55:15;96069.00;;;17.50
33267;BMP180;19638;49.080;11.896;2022-09-09T16:59:52;96053.00;;;17.40
33267;BMP180;19638;49.080;11.896;2022-09-09T17:04:00;96057.00;;;17.40
33267;BMP180;19638;49.080;11.896;2022-09-09T17:08:03;96064.00;;;17.40
33267;BMP180;19638;49.080;11.896;2022-09-09T17:12:07;96053.00;;;17.40
33267;BMP180;19638;49.080;11.896;2022-09-09T17:16:41;96064.00;;;17.30
33267;BMP180;19638;49.080;11.896;2022-09-09T17:20:46;96075.00;;;17.30
33267;BMP180;19638;49.080;11.896;2022-09-09T17:24:49;96074.00;;;17.20
33267;BMP180;19638;49.080;11.896;2022-09-09T17:33:19;96093.00;;;17.10
33267;BMP180;19638;49.080;11.896;2022-09-09T17:37:24;96095.00;;;17.00
33267;BMP180;19638;49.080;11.896;2022-09-09T17:41:28;96105.00;;;16.90
33267;BMP180;19638;49.080;11.896;2022-09-09T17:45:31;96104.00;;;16.80
33267;BMP180;19638;49.080;11.896;2022-09-09T17:49:34;96106.00;;;16.60
33267;BMP180;19638;49.080;11.896;2022-09-09T17:53:40;96107.00;;;16.50
33267;BMP180;19638;49.080;11.896;2022-09-09T18:02:17;96112.00;;;16.80
33267;BMP180;19638;49.080;11.896;2022-09-09T18:06:23;96116.00;;;17.00
33267;BMP180;19638;49.080;11.896;2022-09-09T18:10:57;96121.00;;;17.00
33267;BMP180;19638;49.080;11.896;2022-09-09T18:15:00;96133.00;;;16.90
33267;BMP180;19638;49.080;11.896;2022-09-09T18:19:07;96140.00;;;16.50
33267;BMP180;19638;49.080;11.896;2022-09-09T18:23:14;96151.00;;;16.20
33267;BMP180;19638;49.080;11.896;2022-09-09T18:27:52;96147.00;;;16.20
33267;BMP180;19638;49.080;11.896;2022-09-09T18:31:55;96161.00;;;16.20
33267;BMP180;19638;49.080;11.896;2022-09-09T18:36:03;96165.00;;;16.00
33267;BMP180;19638;49.080;11.896;2022-09-09T18:40:19;96170.00;;;16.00
33267;BMP180;19638;49.080;11.896;2022-09-09T18:44:24;96173.00;;;16.00
33267;BMP180;19638;49.080;11.896;2022-09-09T18:48:28;96181.00;;;15.90
33267;BMP180;19638;49.080;11.896;2022-09-09T18:52:31;96184.00;;;15.90
33267;BMP180;19638;49.080;11.896;2022-09-09T18:56:34;96180.00;;;15.90
33267;BMP180;19638;49.080;11.896;2022-09-09T19:00:39;96180.00;;;15.90
33267;BMP180;19638;49.080;11.896;2022-09-09T19:04:42;96183.00;;;15.70
33267;BMP180;19638;49.080;11.896;2022-09-09T19:09:18;96182.00;;;15.60
33267;BMP180;19638;49.080;11.896;2022-09-09T19:13:21;96196.00;;;15.70
33267;BMP180;19638;49.080;11.896;2022-09-09T19:17:26;96186.00;;;15.60
33267;BMP180;19638;49.080;11.896;2022-09-09T19:22:04;96198.00;;;15.60
33267;BMP180;19638;49.080;11.896;2022-09-09T19:26:12;96183.00;;;15.50
33267;BMP180;19638;49.080;11.896;2022-09-09T19:30:17;96186.00;;;15.40
33267;BMP180;19638;49.080;11.896;2022-09-09T19:34:22;96178.00;;;15.40
33267;BMP180;19638;49.080;11.896;2022-09-09T19:38:25;96177.00;;;15.40
33267;BMP180;19638;49.080;11.896;2022-09-09T19:42:29;96175.00;;;15.30
33267;BMP180;19638;49.080;11.896;2022-09-09T19:46:34;96181.00;;;15.30
33267;BMP180;19638;49.080;11.896;2022-09-09T19:51:10;96193.00;;;15.20
33267;BMP180;19638;49.080;11.896;2022-09-09T19:55:13;96194.00;;;15.20
33267;BMP180;19638;49.080;11.896;2022-09-09T19:59:17;96203.00;;;15.20
33267;BMP180;19638;49.080;11.896;2022-09-09T20:03:20;96192.00;;;15.00
33267;BMP180;19638;49.080;11.896;2022-09-09T20:07:55;96192.00;;;15.00
33267;BMP180;19638;49.080;11.896;2022-09-09T20:11:59;96187.00;;;15.00
33267;BMP180;19638;49.080;11.896;2022-09-09T20:16:05;96187.00;;;15.00
33267;BMP180;19638;49.080;11.896;2022-09-09T20:20:08;96192.00;;;15.00
33267;BMP180;19638;49.080;11.896;2022-09-09T20:24:15;96182.00;;;15.10
33267;BMP180;19638;49.080;11.896;2022-09-09T20:28:19;96181.00;;;15.20
33267;BMP180;19638;49.080;11.896;2022-09-09T20:32:22;96173.00;;;15.20
33267;BMP180;19638;49.080;11.896;2022-09-09T20:36:59;96175.00;;;15.30
33267;BMP180;19638;49.080;11.896;2022-09-09T20:41:04;96182.00;;;15.40
33267;BMP180;19638;49.080;11.896;2022-09-09T20:45:09;96188.00;;;15.40
33267;BMP180;19638;49.080;11.896;2022-09-09T20:49:18;96194.00;;;15.50
33267;BMP180;19638;49.080;11.896;2022-09-09T20:53:52;96206.00;;;15.50
33267;BMP180;19638;49.080;11.896;2022-09-09T20:57:57;96210.00;;;15.50
33267;BMP180;19638;49.080;11.896;2022-09-09T21:02:00;96222.00;;;15.50
33267;BMP180;19638;49.080;11.896;2022-09-09T21:06:38;96219.00;;;15.60
33267;BMP180;19638;49.080;11.896;2022-09-09T21:10:42;96236.00;;;15.60
33267;BMP180;19638;49.080;11.896;2022-09-09T21:14:47;96234.00;;;15.50
33267;BMP180;19638;49.080;11.896;2022-09-09T21:19:21;96221.00;;;15.50
33267;BMP180;19638;49.080;11.896;2022-09-09T21:23:25;96233.00;;;15.50
33267;BMP180;19638;49.080;11.896;2022-09-09T21:27:28;96221.00;;;15.40
33267;BMP180;19638;49.080;11.896;2022-09-09T21:31:33;96217.00;;;15.50
33267;BMP180;19638;49.080;11.896;2022-09-09T21:36:07;96202.00;;;15.50
33267;BMP180;19638;49.080;11.896;2022-09-09T21:40:10;96204.00;;;15.40
33267;BMP180;19638;49.080;11.896;2022-09-09T21:44:13;96210.00;;;15.40
33267;BMP180;19638;49.080;11.896;2022-09-09T21:48:18;96217.00;;;15.30
33267;BMP180;19638;49.080;11.896;2022-09-09T21:52:21;96214.00;;;15.20
33267;BMP180;19638;49.080;11.896;2022-09-09T21:56:58;96220.00;;;15.20
33267;BMP180;19638;49.080;11.896;2022-09-09T22:01:07;96222.00;;;15.00
33267;BMP180;19638;49.080;11.896;2022-09-09T22:05:12;96221.00;;;15.00
33267;BMP180;19638;49.080;11.896;2022-09-09T22:09:45;96232.00;;;14.90
33267;BMP180;19638;49.080;11.896;2022-09-09T22:13:49;96232.00;;;14.90
33267;BMP180;19638;49.080;11.896;2022-09-09T22:17:53;96242.00;;;14.80
33267;BMP180;19638;49.080;11.896;2022-09-09T22:21:58;96243.00;;;14.80
33267;BMP180;19638;49.080;11.896;2022-09-09T22:26:01;96244.00;;;14.70
33267;BMP180;19638;49.080;11.896;2022-09-09T22:30:05;96235.00;;;14.60
33267;BMP180;19638;49.080;11.896;2022-09-09T22:34:08;96235.00;;;14.70
33267;BMP180;19638;49.080;11.896;2022-09-09T22:38:13;96240.00;;;14.80
33267;BMP180;19638;49.080;11.896;2022-09-09T22:42:16;96238.00;;;14.80
33267;BMP180;19638;49.080;11.896;2022-09-09T22:46:20;96240.00;;;14.80
33267;BMP180;19638;49.080;11.896;2022-09-09T22:50:24;96236.00;;;14.60
33267;BMP180;19638;49.080;11.896;2022-09-09T22:54:29;96232.00;;;14.60
33267;BMP180;19638;49.080;11.896;2022-09-09T22:58:34;96227.00;;;14.50
33267;BMP180;19638;49.080;11.896;2022-09-09T23:02:38;96222.00;;;14.50
33267;BMP180;19638;49.080;11.896;2022-09-09T23:06:42;96219.00;;;14.70
33267;BMP180;19638;49.080;11.896;2022-09-09T23:10:47;96230.00;;;14.70
33267;BMP180;19638;49.080;11.896;2022-09-09T23:14:50;96223.00;;;14.70
33267;BMP180;19638;49.080;11.896;2022-09-09T23:18:54;96221.00;;;14.70
33267;BMP180;19638;49.080;11.896;2022-09-09T23:22:57;96227.00;;;14.50
33267;BMP180;19638;49.080;11.896;2022-09-09T23:27:03;96217.00;;;14.40
33267;BMP180;19638;49.080;11.896;2022-09-09T23:31:40;96219.00;;;14.30
33267;BMP180;19638;49.080;11.896;2022-09-09T23:35:45;96218.00;;;14.30
33267;BMP180;19638;49.080;11.896;2022-09-09T23:39:48;96215.00;;;14.30
33267;BMP180;19638;49.080;11.896;2022-09-09T23:43:53;96213.00;;;14.30
33267;BMP180;19638;49.080;11.896;2022-09-09T23:48:27;96212.00;;;14.20
33267;BMP180;19638;49.080;11.896;2022-09-09T23:52:31;96215.00;;;14.10
33267;BMP180;19638;49.080;11.896;2022-09-09T23:56:36;96209.00;;;14.00
